Terminal Aerodrome Forecast
Issued by NWS Greer, SC

Home | Current Version | Previous Version | Text Only | Print | Product List | Glossary On
Versions: 1 2 3 4 5 6 7 8 9 10 11 12 13 14
000
FTUS42 KGSP 192300
TAFAVL
TAF
KAVL 192340Z 2000/2024 34005KT 6SM -RA BR OVC080
      TEMPO 2000/2003 4SM RA BR BKN050 OVC080
     FM200400 33003KT P6SM OVC060
     FM201500 36005KT P6SM SCT060
     FM202200 36004KT P6SM FEW250=

USA.gov is the U.S. government's official web portal to all federal, state and local government web resources and services.